createdAt,value
2022-12-16T00:00:21.671Z,2.20
2022-12-16T00:02:50.415Z,2.93
2022-12-16T00:05:19.995Z,2.60
2022-12-16T00:07:48.399Z,2.23
2022-12-16T00:10:16.847Z,2.10
2022-12-16T00:12:45.210Z,1.57
2022-12-16T00:15:13.580Z,1.90
2022-12-16T00:17:43.307Z,1.80
2022-12-16T00:20:12.664Z,1.50
2022-12-16T00:22:41.325Z,1.90
2022-12-16T00:25:10.320Z,1.60
2022-12-16T00:27:38.902Z,1.93
2022-12-16T00:30:07.981Z,2.13
2022-12-16T00:32:36.590Z,2.47
2022-12-16T00:35:08.181Z,2.13
2022-12-16T00:37:36.510Z,2.07
2022-12-16T00:40:05.307Z,2.43
2022-12-16T00:42:33.923Z,3.13
2022-12-16T00:45:02.281Z,2.30
2022-12-16T00:47:30.845Z,2.47
2022-12-16T00:49:59.256Z,2.57
2022-12-16T00:52:28.882Z,1.90
2022-12-16T00:54:57.266Z,2.70
2022-12-16T00:57:25.725Z,1.87
2022-12-16T00:59:54.304Z,2.83
2022-12-16T01:02:24.057Z,2.60
2022-12-16T01:04:53.692Z,2.07
2022-12-16T01:07:23.197Z,1.87
2022-12-16T01:09:52.916Z,2.00
2022-12-16T01:12:24.141Z,1.93
2022-12-16T01:14:52.667Z,1.67
2022-12-16T01:17:22.048Z,2.23
2022-12-16T01:19:50.464Z,1.90
2022-12-16T01:22:19.170Z,1.90
2022-12-16T01:24:47.603Z,2.10
2022-12-16T01:27:18.188Z,2.03
2022-12-16T01:29:46.599Z,2.27
2022-12-16T01:32:16.098Z,2.10
2022-12-16T01:34:47.353Z,1.90
2022-12-16T01:37:20.554Z,1.90
2022-12-16T01:39:49.292Z,1.60
2022-12-16T01:42:21.313Z,1.90
2022-12-16T01:44:51.942Z,1.80
2022-12-16T01:47:23.796Z,2.40
2022-12-16T01:49:56.715Z,2.30
2022-12-16T01:52:30.659Z,2.33
2022-12-16T01:55:04.377Z,1.80
2022-12-16T01:57:37.965Z,2.20
2022-12-16T02:00:07.457Z,3.03
2022-12-16T02:02:36.883Z,2.63
2022-12-16T02:05:24.497Z,4.00
2022-12-16T02:08:00.257Z,3.07
2022-12-16T02:10:40.252Z,3.50
2022-12-16T02:13:20.179Z,2.83
2022-12-16T02:15:55.271Z,2.77
2022-12-16T02:18:31.104Z,2.70
2022-12-16T02:21:38.892Z,2.40
2022-12-16T02:24:38.130Z,2.33
2022-12-16T02:27:31.640Z,2.53
2022-12-16T02:30:24.679Z,2.73
2022-12-16T02:33:05.331Z,2.67
2022-12-16T02:35:39.961Z,2.90
2022-12-16T02:38:18.912Z,1.90
2022-12-16T02:40:55.453Z,2.37
2022-12-16T02:43:44.434Z,1.90
2022-12-16T02:46:14.415Z,1.60
2022-12-16T02:48:42.807Z,1.63
2022-12-16T02:51:11.556Z,1.90
2022-12-16T02:53:43.027Z,1.50
2022-12-16T02:56:24.176Z,2.53
2022-12-16T02:58:59.478Z,1.93
2022-12-16T03:01:36.304Z,1.80
2022-12-16T03:04:09.276Z,2.13
2022-12-16T03:06:40.059Z,2.20
2022-12-16T03:09:13.120Z,2.30
2022-12-16T03:11:45.217Z,1.20
2022-12-16T03:14:17.468Z,2.27
2022-12-16T03:16:49.679Z,1.67
2022-12-16T03:19:18.385Z,1.80
2022-12-16T03:21:53.933Z,2.17
2022-12-16T03:24:22.401Z,2.30
2022-12-16T03:26:57.259Z,1.63
2022-12-16T03:29:32.118Z,1.70
2022-12-16T03:32:05.336Z,1.60
2022-12-16T03:34:37.570Z,1.67
2022-12-16T03:37:08.869Z,1.90
2022-12-16T03:39:41.153Z,2.10
2022-12-16T03:42:11.597Z,2.13
2022-12-16T03:44:40.754Z,1.70
2022-12-16T03:47:11.125Z,1.80
2022-12-16T03:49:40.616Z,2.10
2022-12-16T03:52:09.983Z,2.43
2022-12-16T03:54:38.586Z,3.10
2022-12-16T03:57:11.795Z,2.70
2022-12-16T03:59:43.593Z,2.47
2022-12-16T04:02:13.668Z,2.33
2022-12-16T04:04:42.031Z,3.03
2022-12-16T04:07:22.217Z,3.67
2022-12-16T04:09:51.155Z,3.03
2022-12-16T04:12:36.673Z,2.90
2022-12-16T04:15:22.931Z,2.10
2022-12-16T04:18:10.225Z,2.47
2022-12-16T04:20:58.539Z,3.13
2022-12-16T04:23:46.598Z,2.63
2022-12-16T04:26:15.221Z,2.63
2022-12-16T04:28:43.501Z,2.30
2022-12-16T04:31:12.083Z,2.60
2022-12-16T04:33:59.815Z,2.80
2022-12-16T04:36:45.759Z,2.87
2022-12-16T04:39:31.696Z,3.30
2022-12-16T04:42:29.009Z,3.30
2022-12-16T04:45:14.840Z,3.73
2022-12-16T04:48:00.669Z,4.13
2022-12-16T04:50:47.966Z,3.13
2022-12-16T04:53:34.242Z,3.40
2022-12-16T04:56:20.367Z,3.10
2022-12-16T04:59:06.468Z,3.50
2022-12-16T05:01:52.772Z,4.17
2022-12-16T05:04:38.528Z,3.50
2022-12-16T05:07:25.616Z,3.10
2022-12-16T05:10:11.469Z,4.03
2022-12-16T05:12:57.459Z,3.63
2022-12-16T05:15:43.299Z,3.87
2022-12-16T05:18:31.968Z,3.30
2022-12-16T05:21:17.972Z,2.97
2022-12-16T05:24:05.253Z,3.27
2022-12-16T05:26:50.850Z,3.27
2022-12-16T05:29:36.932Z,2.90
2022-12-16T05:32:22.666Z,3.07
2022-12-16T05:35:08.547Z,3.90
2022-12-16T05:37:54.613Z,4.30
2022-12-16T05:40:41.820Z,3.83
2022-12-16T05:43:28.006Z,3.40
2022-12-16T05:46:13.800Z,3.60
2022-12-16T05:48:59.681Z,4.07
2022-12-16T05:51:45.681Z,4.20
2022-12-16T05:54:31.989Z,4.93
2022-12-16T05:57:27.703Z,5.50
2022-12-16T06:00:13.531Z,5.17
2022-12-16T06:02:59.321Z,6.47
2022-12-16T06:05:45.379Z,6.33
2022-12-16T06:08:31.139Z,6.10
2022-12-16T06:11:16.799Z,6.53
2022-12-16T06:14:18.213Z,6.20
2022-12-16T06:17:03.777Z,6.73
2022-12-16T06:19:49.810Z,7.17
2022-12-16T06:22:36.031Z,6.40
2022-12-16T06:25:22.333Z,6.37
2022-12-16T06:28:09.721Z,7.23
2022-12-16T06:30:57.081Z,6.40
2022-12-16T06:33:42.908Z,7.00
2022-12-16T06:36:28.905Z,8.40
2022-12-16T06:39:14.677Z,6.83
2022-12-16T06:42:00.300Z,13.23
2022-12-16T06:44:46.273Z,7.47
2022-12-16T06:47:33.427Z,7.30
2022-12-16T06:50:19.459Z,8.20
2022-12-16T06:53:05.110Z,7.57
2022-12-16T06:55:51.077Z,8.20
2022-12-16T06:58:37.016Z,8.07
2022-12-16T07:01:23.493Z,7.93
2022-12-16T07:04:10.505Z,8.80
2022-12-16T07:06:56.738Z,8.80
2022-12-16T07:09:42.911Z,10.13
2022-12-16T07:12:29.057Z,8.67
2022-12-16T07:15:14.742Z,9.00
2022-12-16T07:18:00.567Z,8.50
2022-12-16T07:20:47.612Z,9.03
2022-12-16T07:23:32.866Z,10.10
2022-12-16T07:26:19.019Z,10.07
2022-12-16T07:29:05.225Z,11.07
2022-12-16T07:31:51.352Z,11.50
2022-12-16T07:34:40.810Z,11.17
2022-12-16T07:37:30.069Z,10.40
2022-12-16T07:40:16.055Z,11.10
2022-12-16T07:43:04.749Z,12.47
2022-12-16T07:45:50.722Z,12.00
2022-12-16T07:48:36.836Z,16.30
2022-12-16T07:51:22.784Z,16.03
2022-12-16T07:54:10.004Z,17.35
2022-12-16T07:56:55.766Z,15.57
2022-12-16T07:59:41.531Z,15.10
2022-12-16T08:02:28.103Z,14.97
2022-12-16T08:05:14.261Z,16.57
2022-12-16T08:08:00.618Z,15.10
2022-12-16T08:10:47.833Z,14.93
2022-12-16T08:13:33.740Z,14.87
2022-12-16T08:16:20.215Z,15.43
2022-12-16T08:19:10.781Z,18.17
2022-12-16T08:21:57.330Z,13.57
2022-12-16T08:24:46.808Z,17.23
2022-12-16T08:27:38.269Z,17.17
2022-12-16T08:30:25.197Z,19.57
2022-12-16T08:33:18.820Z,20.30
2022-12-16T08:36:05.429Z,20.87
2022-12-16T08:38:51.259Z,21.20
2022-12-16T08:41:37.325Z,19.77
2022-12-16T08:44:24.518Z,20.17
2022-12-16T08:47:10.548Z,20.40
2022-12-16T08:49:59.732Z,19.67
2022-12-16T08:52:47.748Z,18.13
2022-12-16T08:55:33.770Z,18.17
2022-12-16T08:58:19.280Z,17.80
2022-12-16T09:01:07.845Z,19.70
2022-12-16T09:03:54.671Z,18.83
2022-12-16T09:06:41.397Z,18.50
2022-12-16T09:09:27.049Z,20.13
2022-12-16T09:12:13.084Z,20.03
2022-12-16T09:14:58.708Z,31.13
2022-12-16T09:17:48.242Z,36.47
2022-12-16T09:20:34.464Z,39.40
2022-12-16T09:23:21.360Z,34.33
2022-12-16T09:26:07.417Z,28.43
2022-12-16T09:28:53.236Z,28.47
2022-12-16T09:31:40.666Z,27.47
2022-12-16T09:34:27.733Z,25.17
2022-12-16T09:37:13.761Z,24.03
2022-12-16T09:39:58.928Z,22.83
2022-12-16T09:42:53.198Z,22.77
2022-12-16T09:45:51.178Z,20.50
2022-12-16T09:48:47.373Z,19.73
2022-12-16T09:51:35.565Z,19.97
2022-12-16T09:54:36.873Z,17.10
2022-12-16T09:57:24.177Z,18.13
2022-12-16T10:00:13.740Z,15.87
2022-12-16T10:03:06.477Z,13.90
2022-12-16T10:06:03.814Z,13.70
2022-12-16T10:08:59.135Z,14.07
2022-12-16T10:11:56.876Z,10.93
2022-12-16T10:14:46.214Z,11.47
2022-12-16T10:17:38.521Z,10.13
2022-12-16T10:20:33.827Z,10.17
2022-12-16T10:23:28.464Z,10.47
2022-12-16T10:26:20.910Z,10.27
2022-12-16T10:29:10.575Z,10.13
2022-12-16T10:31:57.098Z,9.40
2022-12-16T10:34:47.200Z,8.70
2022-12-16T10:37:36.622Z,8.40
2022-12-16T10:40:24.502Z,8.73
2022-12-16T10:43:22.539Z,8.60
2022-12-16T10:46:11.674Z,8.47
2022-12-16T10:48:57.747Z,7.70
2022-12-16T10:51:46.678Z,8.60
2022-12-16T10:54:49.392Z,7.20
2022-12-16T10:57:48.823Z,8.33
2022-12-16T11:00:38.157Z,7.47
2022-12-16T11:03:39.093Z,7.07
2022-12-16T11:06:25.917Z,6.80
2022-12-16T11:09:11.783Z,5.90
2022-12-16T11:11:57.911Z,5.63
2022-12-16T11:15:27.765Z,6.13
2022-12-16T11:17:52.429Z,4.70
2022-12-16T11:20:41.010Z,5.23
2022-12-16T11:23:37.201Z,4.47
2022-12-16T11:26:25.759Z,4.33
2022-12-16T11:29:27.143Z,3.93
2022-12-16T11:32:19.114Z,3.97
2022-12-16T11:35:13.719Z,3.77
2022-12-16T11:38:01.798Z,3.57
2022-12-16T11:40:49.202Z,3.67
2022-12-16T11:43:37.042Z,3.73
2022-12-16T11:46:27.894Z,3.97
2022-12-16T11:49:21.873Z,3.93
2022-12-16T11:52:35.827Z,3.80
2022-12-16T11:56:03.640Z,4.30
2022-12-16T11:58:46.910Z,4.47
2022-12-16T12:01:43.147Z,4.17
2022-12-16T12:04:31.461Z,3.60
2022-12-16T12:07:46.338Z,4.00
2022-12-16T12:11:07.377Z,3.60
2022-12-16T12:14:08.662Z,4.03
2022-12-16T12:17:10.179Z,3.93
2022-12-16T12:20:07.320Z,4.10
2022-12-16T12:22:56.771Z,4.37
2022-12-16T12:25:48.960Z,3.90
2022-12-16T12:28:49.435Z,3.67
2022-12-16T12:31:49.653Z,4.00
2022-12-16T12:34:45.008Z,3.60
2022-12-16T12:37:40.042Z,3.50
2022-12-16T12:40:40.836Z,3.60
2022-12-16T12:43:39.774Z,3.30
2022-12-16T12:46:37.812Z,3.50
2022-12-16T12:49:30.992Z,3.33
2022-12-16T12:52:24.775Z,3.57
2022-12-16T12:55:17.633Z,3.87
2022-12-16T12:58:08.131Z,3.00
2022-12-16T13:00:59.044Z,2.83
2022-12-16T13:03:52.371Z,3.47
2022-12-16T13:06:39.428Z,3.30
2022-12-16T13:09:44.012Z,3.50
2022-12-16T13:12:42.038Z,2.50
2022-12-16T13:15:36.644Z,2.70
2022-12-16T13:18:42.620Z,2.67
2022-12-16T13:22:02.255Z,2.70
2022-12-16T13:25:12.346Z,2.47
2022-12-16T13:28:12.050Z,2.50
2022-12-16T13:30:59.541Z,2.57
2022-12-16T13:33:49.139Z,2.40
2022-12-16T13:36:37.231Z,2.40
2022-12-16T13:39:43.564Z,2.60
2022-12-16T13:43:05.385Z,2.87
2022-12-16T13:45:56.479Z,2.70
2022-12-16T13:48:53.895Z,3.13
2022-12-16T13:52:24.788Z,3.20
2022-12-16T13:55:33.290Z,3.00
2022-12-16T13:58:25.181Z,3.23
2022-12-16T14:01:22.270Z,3.53
2022-12-16T14:04:11.529Z,3.60
2022-12-16T14:06:58.788Z,3.90
2022-12-16T14:09:51.191Z,3.87
2022-12-16T14:13:07.273Z,3.90
2022-12-16T14:16:04.040Z,3.53
2022-12-16T14:18:59.532Z,4.57
2022-12-16T14:21:53.664Z,6.80
2022-12-16T14:24:44.166Z,11.30
2022-12-16T14:27:33.835Z,11.97
2022-12-16T14:30:20.538Z,12.20
2022-12-16T14:33:06.534Z,10.80
2022-12-16T14:35:52.610Z,7.90
2022-12-16T14:38:48.422Z,6.03
2022-12-16T14:41:36.405Z,7.30
2022-12-16T14:44:23.923Z,10.27
2022-12-16T14:47:10.405Z,9.07
2022-12-16T14:50:17.505Z,9.87
2022-12-16T14:53:18.210Z,12.00
2022-12-16T14:56:05.060Z,11.53
2022-12-16T14:58:51.173Z,11.93
2022-12-16T15:01:41.546Z,10.20
2022-12-16T15:04:33.268Z,10.43
2022-12-16T15:07:20.600Z,12.03
2022-12-16T15:10:23.083Z,10.40
2022-12-16T15:13:12.745Z,8.27
2022-12-16T15:16:03.172Z,8.67
2022-12-16T15:18:52.952Z,10.77
2022-12-16T15:21:39.039Z,9.77
2022-12-16T15:24:28.069Z,9.67
2022-12-16T15:27:32.384Z,9.33
2022-12-16T15:30:19.786Z,9.30
2022-12-16T15:33:11.984Z,10.07
2022-12-16T15:35:57.796Z,9.87
2022-12-16T15:38:47.549Z,9.40
2022-12-16T15:41:42.205Z,9.60
2022-12-16T15:44:35.932Z,9.87
2022-12-16T15:47:23.947Z,9.93
2022-12-16T15:50:10.815Z,14.13
2022-12-16T15:52:58.066Z,21.23
2022-12-16T15:55:50.099Z,20.07
2022-12-16T15:58:41.409Z,13.97
2022-12-16T16:01:28.394Z,13.70
2022-12-16T16:04:16.643Z,13.97
2022-12-16T16:07:18.928Z,14.37
2022-12-16T16:10:07.278Z,12.27
2022-12-16T16:12:53.310Z,14.17
2022-12-16T16:15:39.143Z,14.50
2022-12-16T16:18:28.461Z,15.87
2022-12-16T16:21:15.388Z,15.30
2022-12-16T16:24:01.503Z,14.03
2022-12-16T16:26:47.960Z,12.47
2022-12-16T16:29:33.987Z,12.17
2022-12-16T16:32:20.697Z,12.27
2022-12-16T16:35:06.600Z,14.53
2022-12-16T16:37:53.753Z,15.27
2022-12-16T16:40:46.585Z,15.03
2022-12-16T16:43:32.972Z,14.77
2022-12-16T16:46:19.289Z,16.13
2022-12-16T16:49:05.081Z,14.23
2022-12-16T16:51:50.979Z,12.57
2022-12-16T16:54:38.211Z,13.27
2022-12-16T16:57:23.992Z,12.73
2022-12-16T17:00:09.585Z,12.27
2022-12-16T17:02:55.620Z,12.50
2022-12-16T17:05:41.912Z,11.93
2022-12-16T17:08:27.553Z,11.87
2022-12-16T17:11:14.910Z,11.20
2022-12-16T17:14:01.032Z,12.70
2022-12-16T17:16:46.713Z,12.33
2022-12-16T17:19:32.475Z,13.03
2022-12-16T17:22:18.643Z,12.80
2022-12-16T17:25:04.652Z,13.60
2022-12-16T17:27:52.071Z,13.30
2022-12-16T17:30:43.492Z,13.90
2022-12-16T17:33:33.554Z,14.70
2022-12-16T17:36:19.787Z,14.30
2022-12-16T17:39:06.014Z,14.10
2022-12-16T17:41:52.575Z,14.20
2022-12-16T17:44:39.516Z,15.03
2022-12-16T17:47:25.302Z,14.83
2022-12-16T17:50:11.497Z,15.93
2022-12-16T17:52:57.779Z,15.37
2022-12-16T17:55:43.767Z,15.57
2022-12-16T17:58:35.175Z,16.73
2022-12-16T18:01:24.151Z,15.73
2022-12-16T18:04:10.843Z,16.13
2022-12-16T18:06:56.456Z,15.83
2022-12-16T18:09:42.342Z,15.87
2022-12-16T18:12:28.381Z,17.00
2022-12-16T18:15:14.026Z,17.10
2022-12-16T18:18:01.312Z,17.00
2022-12-16T18:20:47.404Z,18.97
2022-12-16T18:23:33.825Z,24.50
2022-12-16T18:26:21.495Z,24.33
2022-12-16T18:29:07.169Z,26.70
2022-12-16T18:31:53.306Z,28.87
2022-12-16T18:34:41.168Z,31.27
2022-12-16T18:37:29.063Z,33.70
2022-12-16T18:40:14.931Z,32.97
2022-12-16T18:43:00.652Z,36.13
2022-12-16T18:45:46.535Z,35.27
2022-12-16T18:48:32.352Z,34.67
2022-12-16T18:51:20.227Z,33.20
2022-12-16T18:54:08.000Z,33.50
2022-12-16T18:56:54.018Z,35.63
2022-12-16T18:59:40.171Z,35.63
2022-12-16T19:02:26.943Z,34.07
2022-12-16T19:05:12.624Z,38.00
2022-12-16T19:07:59.599Z,37.63
2022-12-16T19:10:45.339Z,34.47
2022-12-16T19:13:32.345Z,35.80
2022-12-16T19:16:18.166Z,34.57
2022-12-16T19:19:03.981Z,32.50
2022-12-16T19:21:52.112Z,32.63
2022-12-16T19:24:43.510Z,31.47
2022-12-16T19:27:29.791Z,30.33
2022-12-16T19:30:15.570Z,31.30
2022-12-16T19:33:01.325Z,32.07
2022-12-16T19:35:47.289Z,31.33
2022-12-16T19:38:33.171Z,31.23
2022-12-16T19:41:20.358Z,33.33
2022-12-16T19:47:11.817Z,32.83
2022-12-16T19:49:57.715Z,33.33
2022-12-16T19:52:43.806Z,33.60
2022-12-16T19:55:29.750Z,33.50
2022-12-16T19:58:16.812Z,33.17
2022-12-16T20:01:02.820Z,32.40
2022-12-16T20:03:49.163Z,31.30
2022-12-16T20:06:35.371Z,31.10
2022-12-16T20:09:21.042Z,31.63
2022-12-16T20:12:06.947Z,32.03
2022-12-16T20:15:02.506Z,31.03
2022-12-16T20:17:48.409Z,35.30
2022-12-16T20:20:34.285Z,37.00
2022-12-16T20:23:20.536Z,39.97
2022-12-16T20:26:12.903Z,39.37
2022-12-16T20:28:58.756Z,40.67
2022-12-16T20:31:46.208Z,41.97
2022-12-16T20:34:32.049Z,46.97
2022-12-16T20:37:17.800Z,46.27
2022-12-16T20:40:02.693Z,43.83
2022-12-16T20:42:48.780Z,46.00
2022-12-16T20:45:34.554Z,49.13
2022-12-16T20:48:22.192Z,47.33
2022-12-16T20:51:14.259Z,41.23
2022-12-16T20:54:00.268Z,42.30
2022-12-16T20:56:45.874Z,41.50
2022-12-16T20:59:37.138Z,40.10
2022-12-16T21:02:25.860Z,39.90
2022-12-16T21:05:14.984Z,40.63
2022-12-16T21:08:01.157Z,38.63
2022-12-16T21:10:46.342Z,35.20
2022-12-16T21:13:33.802Z,32.87
2022-12-16T21:16:21.565Z,31.30
2022-12-16T21:19:07.542Z,27.40
2022-12-16T21:21:54.773Z,29.87
2022-12-16T21:24:42.728Z,28.27
2022-12-16T21:27:28.985Z,29.77
2022-12-16T21:30:14.995Z,32.57
2022-12-16T21:33:01.075Z,32.60
2022-12-16T21:35:46.714Z,33.00
2022-12-16T21:38:34.154Z,31.63
2022-12-16T21:41:20.495Z,33.10
2022-12-16T21:44:08.689Z,35.83
2022-12-16T21:46:59.782Z,36.60
2022-12-16T21:49:45.831Z,38.00
2022-12-16T21:52:32.115Z,38.77
2022-12-16T21:55:19.307Z,36.23
2022-12-16T21:58:05.269Z,35.40
2022-12-16T22:00:56.202Z,34.57
2022-12-16T22:04:05.946Z,32.03
2022-12-16T22:06:51.782Z,30.97
2022-12-16T22:09:37.847Z,30.13
2022-12-16T22:12:24.348Z,30.13
2022-12-16T22:15:10.282Z,27.97
2022-12-16T22:21:01.737Z,29.27
2022-12-16T22:23:48.144Z,29.17
2022-12-16T22:26:34.176Z,27.60
2022-12-16T22:29:21.736Z,27.83
2022-12-16T22:32:07.999Z,28.30
2022-12-16T22:34:53.895Z,29.13
2022-12-16T22:37:41.636Z,28.47
2022-12-16T22:40:28.499Z,27.97
2022-12-16T22:43:14.466Z,28.87
2022-12-16T22:46:01.627Z,29.23
2022-12-16T22:48:47.731Z,29.33
2022-12-16T22:51:46.251Z,29.20
2022-12-16T22:54:32.233Z,28.53
2022-12-16T22:57:18.130Z,29.20
2022-12-16T23:00:03.996Z,36.07
2022-12-16T23:02:51.393Z,35.00
2022-12-16T23:05:38.003Z,31.73
2022-12-16T23:08:24.314Z,31.00
2022-12-16T23:11:13.361Z,31.37
2022-12-16T23:13:59.179Z,30.83
2022-12-16T23:16:44.819Z,31.70
2022-12-16T23:19:32.069Z,33.03
2022-12-16T23:22:20.829Z,31.13
2022-12-16T23:25:06.868Z,31.27
2022-12-16T23:27:52.606Z,33.93
2022-12-16T23:30:39.879Z,33.07
2022-12-16T23:32:31.270Z,29.23
2022-12-16T23:33:25.583Z,35.20
2022-12-16T23:36:12.754Z,32.67
2022-12-16T23:38:58.486Z,33.57
2022-12-16T23:41:44.749Z,33.20
2022-12-16T23:44:31.244Z,32.10
2022-12-16T23:47:16.855Z,31.73
2022-12-16T23:50:02.655Z,31.67
2022-12-16T23:52:50.149Z,31.67
2022-12-16T23:55:36.043Z,32.90
2022-12-16T23:58:23.161Z,32.80
